sensor_id;sensor_type;location;lat;lon;timestamp;P1;durP1;ratioP1;P2;durP2;ratioP2
21771;SDS011;11047;47.904;8.110;2022-08-06T00:00:11;8.45;;;4.72;;
21771;SDS011;11047;47.904;8.110;2022-08-06T00:02:38;5.90;;;4.72;;
21771;SDS011;11047;47.904;8.110;2022-08-06T00:05:06;4.45;;;4.10;;
21771;SDS011;11047;47.904;8.110;2022-08-06T00:07:33;5.93;;;4.60;;
21771;SDS011;11047;47.904;8.110;2022-08-06T00:10:00;5.25;;;4.47;;
21771;SDS011;11047;47.904;8.110;2022-08-06T00:12:27;5.65;;;4.45;;
21771;SDS011;11047;47.904;8.110;2022-08-06T00:14:55;6.90;;;5.22;;
21771;SDS011;11047;47.904;8.110;2022-08-06T00:17:24;7.45;;;4.80;;
21771;SDS011;11047;47.904;8.110;2022-08-06T00:19:51;5.47;;;4.47;;
21771;SDS011;11047;47.904;8.110;2022-08-06T00:22:18;5.65;;;4.47;;
21771;SDS011;11047;47.904;8.110;2022-08-06T00:24:45;4.80;;;4.32;;
21771;SDS011;11047;47.904;8.110;2022-08-06T00:27:11;5.65;;;4.40;;
21771;SDS011;11047;47.904;8.110;2022-08-06T00:29:38;4.75;;;4.35;;
21771;SDS011;11047;47.904;8.110;2022-08-06T00:32:05;6.03;;;4.50;;
21771;SDS011;11047;47.904;8.110;2022-08-06T00:34:34;4.88;;;4.45;;
21771;SDS011;11047;47.904;8.110;2022-08-06T00:37:01;5.10;;;4.57;;
21771;SDS011;11047;47.904;8.110;2022-08-06T00:39:28;5.05;;;4.47;;
21771;SDS011;11047;47.904;8.110;2022-08-06T00:41:55;5.32;;;4.82;;
21771;SDS011;11047;47.904;8.110;2022-08-06T00:44:22;7.63;;;5.03;;
21771;SDS011;11047;47.904;8.110;2022-08-06T00:46:48;5.30;;;4.30;;
21771;SDS011;11047;47.904;8.110;2022-08-06T00:49:15;5.97;;;4.40;;
21771;SDS011;11047;47.904;8.110;2022-08-06T00:51:44;5.50;;;4.70;;
21771;SDS011;11047;47.904;8.110;2022-08-06T00:54:11;4.80;;;4.40;;
21771;SDS011;11047;47.904;8.110;2022-08-06T00:56:38;5.80;;;4.30;;
21771;SDS011;11047;47.904;8.110;2022-08-06T00:59:05;6.72;;;4.50;;
21771;SDS011;11047;47.904;8.110;2022-08-06T01:01:32;5.10;;;4.43;;
21771;SDS011;11047;47.904;8.110;2022-08-06T01:03:59;5.78;;;4.30;;
21771;SDS011;11047;47.904;8.110;2022-08-06T01:06:26;5.13;;;4.30;;
21771;SDS011;11047;47.904;8.110;2022-08-06T01:08:54;4.43;;;4.03;;
21771;SDS011;11047;47.904;8.110;2022-08-06T01:11:21;4.90;;;4.43;;
21771;SDS011;11047;47.904;8.110;2022-08-06T01:13:48;5.22;;;4.72;;
21771;SDS011;11047;47.904;8.110;2022-08-06T01:16:17;4.80;;;4.28;;
21771;SDS011;11047;47.904;8.110;2022-08-06T01:18:50;7.00;;;4.82;;
21771;SDS011;11047;47.904;8.110;2022-08-06T01:21:30;6.30;;;4.97;;
21771;SDS011;11047;47.904;8.110;2022-08-06T01:24:16;5.50;;;5.00;;
21771;SDS011;11047;47.904;8.110;2022-08-06T01:30:04;7.88;;;5.90;;
21771;SDS011;11047;47.904;8.110;2022-08-06T01:32:34;8.38;;;6.40;;
21771;SDS011;11047;47.904;8.110;2022-08-06T01:35:05;7.25;;;5.95;;
21771;SDS011;11047;47.904;8.110;2022-08-06T01:37:37;8.10;;;7.30;;
21771;SDS011;11047;47.904;8.110;2022-08-06T01:40:10;8.57;;;6.72;;
21771;SDS011;11047;47.904;8.110;2022-08-06T01:42:42;9.65;;;8.10;;
21771;SDS011;11047;47.904;8.110;2022-08-06T01:45:11;9.93;;;7.75;;
21771;SDS011;11047;47.904;8.110;2022-08-06T01:47:41;10.57;;;8.85;;
21771;SDS011;11047;47.904;8.110;2022-08-06T01:50:11;11.43;;;8.50;;
21771;SDS011;11047;47.904;8.110;2022-08-06T01:52:42;10.65;;;8.60;;
21771;SDS011;11047;47.904;8.110;2022-08-06T01:55:10;12.07;;;8.82;;
21771;SDS011;11047;47.904;8.110;2022-08-06T01:57:45;9.65;;;8.50;;
21771;SDS011;11047;47.904;8.110;2022-08-06T02:00:15;10.30;;;7.05;;
21771;SDS011;11047;47.904;8.110;2022-08-06T02:02:44;9.77;;;8.27;;
21771;SDS011;11047;47.904;8.110;2022-08-06T02:05:13;9.48;;;7.90;;
21771;SDS011;11047;47.904;8.110;2022-08-06T02:07:43;8.05;;;6.93;;
21771;SDS011;11047;47.904;8.110;2022-08-06T02:10:13;8.63;;;7.07;;
21771;SDS011;11047;47.904;8.110;2022-08-06T02:12:44;7.28;;;6.30;;
21771;SDS011;11047;47.904;8.110;2022-08-06T02:15:14;6.90;;;5.65;;
21771;SDS011;11047;47.904;8.110;2022-08-06T02:17:46;9.52;;;5.93;;
21771;SDS011;11047;47.904;8.110;2022-08-06T02:20:16;6.95;;;6.15;;
21771;SDS011;11047;47.904;8.110;2022-08-06T02:22:47;7.07;;;6.20;;
21771;SDS011;11047;47.904;8.110;2022-08-06T02:25:16;8.25;;;6.03;;
21771;SDS011;11047;47.904;8.110;2022-08-06T02:27:46;7.55;;;5.53;;
21771;SDS011;11047;47.904;8.110;2022-08-06T02:30:15;7.20;;;5.22;;
21771;SDS011;11047;47.904;8.110;2022-08-06T02:32:43;5.97;;;4.95;;
21771;SDS011;11047;47.904;8.110;2022-08-06T02:35:11;7.35;;;4.80;;
21771;SDS011;11047;47.904;8.110;2022-08-06T02:37:41;6.90;;;4.10;;
21771;SDS011;11047;47.904;8.110;2022-08-06T02:40:13;5.70;;;4.30;;
21771;SDS011;11047;47.904;8.110;2022-08-06T02:42:47;5.50;;;4.15;;
21771;SDS011;11047;47.904;8.110;2022-08-06T02:45:19;5.90;;;4.03;;
21771;SDS011;11047;47.904;8.110;2022-08-06T02:47:50;5.28;;;3.67;;
21771;SDS011;11047;47.904;8.110;2022-08-06T02:50:24;6.00;;;3.85;;
21771;SDS011;11047;47.904;8.110;2022-08-06T02:53:00;3.60;;;3.17;;
21771;SDS011;11047;47.904;8.110;2022-08-06T02:55:30;5.57;;;3.50;;
21771;SDS011;11047;47.904;8.110;2022-08-06T02:58:01;4.90;;;3.38;;
21771;SDS011;11047;47.904;8.110;2022-08-06T03:00:38;3.30;;;3.00;;
21771;SDS011;11047;47.904;8.110;2022-08-06T03:03:08;5.18;;;3.10;;
21771;SDS011;11047;47.904;8.110;2022-08-06T03:05:36;4.95;;;3.35;;
21771;SDS011;11047;47.904;8.110;2022-08-06T03:08:04;3.70;;;2.67;;
21771;SDS011;11047;47.904;8.110;2022-08-06T03:10:35;6.38;;;3.25;;
21771;SDS011;11047;47.904;8.110;2022-08-06T03:13:04;4.32;;;3.20;;
21771;SDS011;11047;47.904;8.110;2022-08-06T03:15:33;4.97;;;2.85;;
21771;SDS011;11047;47.904;8.110;2022-08-06T03:18:02;7.43;;;3.40;;
21771;SDS011;11047;47.904;8.110;2022-08-06T03:20:31;5.80;;;2.90;;
21771;SDS011;11047;47.904;8.110;2022-08-06T03:23:02;8.27;;;3.45;;
21771;SDS011;11047;47.904;8.110;2022-08-06T03:25:32;4.68;;;2.63;;
21771;SDS011;11047;47.904;8.110;2022-08-06T03:28:01;3.38;;;2.88;;
21771;SDS011;11047;47.904;8.110;2022-08-06T03:30:30;3.80;;;2.65;;
21771;SDS011;11047;47.904;8.110;2022-08-06T03:32:58;5.72;;;2.90;;
21771;SDS011;11047;47.904;8.110;2022-08-06T03:35:27;4.07;;;2.60;;
21771;SDS011;11047;47.904;8.110;2022-08-06T03:37:54;5.50;;;3.10;;
21771;SDS011;11047;47.904;8.110;2022-08-06T03:40:23;5.22;;;2.90;;
21771;SDS011;11047;47.904;8.110;2022-08-06T03:42:50;4.68;;;2.83;;
21771;SDS011;11047;47.904;8.110;2022-08-06T03:45:18;6.15;;;2.90;;
21771;SDS011;11047;47.904;8.110;2022-08-06T03:47:48;4.47;;;2.60;;
21771;SDS011;11047;47.904;8.110;2022-08-06T03:50:20;7.50;;;3.03;;
21771;SDS011;11047;47.904;8.110;2022-08-06T03:52:48;4.05;;;2.50;;
21771;SDS011;11047;47.904;8.110;2022-08-06T03:55:22;4.70;;;3.10;;
21771;SDS011;11047;47.904;8.110;2022-08-06T03:57:51;6.70;;;2.85;;
21771;SDS011;11047;47.904;8.110;2022-08-06T04:00:22;3.05;;;2.30;;
21771;SDS011;11047;47.904;8.110;2022-08-06T04:02:54;5.28;;;2.67;;
21771;SDS011;11047;47.904;8.110;2022-08-06T04:05:23;8.82;;;2.97;;
21771;SDS011;11047;47.904;8.110;2022-08-06T04:07:52;6.28;;;2.92;;
21771;SDS011;11047;47.904;8.110;2022-08-06T04:10:23;5.13;;;2.85;;
21771;SDS011;11047;47.904;8.110;2022-08-06T04:12:52;6.03;;;3.03;;
21771;SDS011;11047;47.904;8.110;2022-08-06T04:15:20;4.20;;;2.70;;
21771;SDS011;11047;47.904;8.110;2022-08-06T04:17:47;2.88;;;2.60;;
21771;SDS011;11047;47.904;8.110;2022-08-06T04:20:18;4.22;;;2.70;;
21771;SDS011;11047;47.904;8.110;2022-08-06T04:22:47;5.70;;;3.10;;
21771;SDS011;11047;47.904;8.110;2022-08-06T04:25:14;7.10;;;2.50;;
21771;SDS011;11047;47.904;8.110;2022-08-06T04:27:41;3.88;;;2.70;;
21771;SDS011;11047;47.904;8.110;2022-08-06T04:30:11;3.47;;;2.30;;
21771;SDS011;11047;47.904;8.110;2022-08-06T04:32:39;4.88;;;2.45;;
21771;SDS011;11047;47.904;8.110;2022-08-06T04:35:09;5.90;;;2.65;;
21771;SDS011;11047;47.904;8.110;2022-08-06T04:37:38;3.90;;;2.70;;
21771;SDS011;11047;47.904;8.110;2022-08-06T04:40:06;4.80;;;2.20;;
21771;SDS011;11047;47.904;8.110;2022-08-06T04:42:34;3.55;;;2.70;;
21771;SDS011;11047;47.904;8.110;2022-08-06T04:45:01;3.78;;;2.28;;
21771;SDS011;11047;47.904;8.110;2022-08-06T04:47:29;4.38;;;2.20;;
21771;SDS011;11047;47.904;8.110;2022-08-06T04:49:57;2.80;;;2.08;;
21771;SDS011;11047;47.904;8.110;2022-08-06T04:52:25;3.08;;;2.20;;
21771;SDS011;11047;47.904;8.110;2022-08-06T04:54:55;2.65;;;2.20;;
21771;SDS011;11047;47.904;8.110;2022-08-06T04:57:21;2.78;;;2.10;;
21771;SDS011;11047;47.904;8.110;2022-08-06T04:59:48;5.75;;;2.00;;
21771;SDS011;11047;47.904;8.110;2022-08-06T05:02:15;3.25;;;2.42;;
21771;SDS011;11047;47.904;8.110;2022-08-06T05:04:42;5.53;;;2.28;;
21771;SDS011;11047;47.904;8.110;2022-08-06T05:07:11;4.90;;;2.30;;
21771;SDS011;11047;47.904;8.110;2022-08-06T05:09:41;5.15;;;2.13;;
21771;SDS011;11047;47.904;8.110;2022-08-06T05:12:13;5.18;;;2.47;;
21771;SDS011;11047;47.904;8.110;2022-08-06T05:14:46;2.50;;;2.25;;
21771;SDS011;11047;47.904;8.110;2022-08-06T05:17:18;6.68;;;2.42;;
21771;SDS011;11047;47.904;8.110;2022-08-06T05:19:53;3.95;;;2.60;;
21771;SDS011;11047;47.904;8.110;2022-08-06T05:22:23;4.38;;;2.22;;
21771;SDS011;11047;47.904;8.110;2022-08-06T05:24:51;4.13;;;2.20;;
21771;SDS011;11047;47.904;8.110;2022-08-06T05:27:20;4.03;;;2.53;;
21771;SDS011;11047;47.904;8.110;2022-08-06T05:29:47;5.38;;;2.28;;
21771;SDS011;11047;47.904;8.110;2022-08-06T05:32:14;2.13;;;2.00;;
21771;SDS011;11047;47.904;8.110;2022-08-06T05:34:45;2.95;;;2.05;;
21771;SDS011;11047;47.904;8.110;2022-08-06T05:37:12;3.45;;;1.95;;
21771;SDS011;11047;47.904;8.110;2022-08-06T05:39:39;4.13;;;1.80;;
21771;SDS011;11047;47.904;8.110;2022-08-06T05:42:06;4.22;;;2.00;;
21771;SDS011;11047;47.904;8.110;2022-08-06T05:44:34;5.88;;;2.70;;
21771;SDS011;11047;47.904;8.110;2022-08-06T05:47:02;4.20;;;2.03;;
21771;SDS011;11047;47.904;8.110;2022-08-06T05:49:34;3.05;;;2.10;;
21771;SDS011;11047;47.904;8.110;2022-08-06T05:52:07;2.70;;;1.88;;
21771;SDS011;11047;47.904;8.110;2022-08-06T05:54:39;2.55;;;2.00;;
21771;SDS011;11047;47.904;8.110;2022-08-06T05:57:12;5.05;;;2.28;;
21771;SDS011;11047;47.904;8.110;2022-08-06T05:59:48;5.25;;;2.10;;
21771;SDS011;11047;47.904;8.110;2022-08-06T06:04:45;3.88;;;1.50;;
21771;SDS011;11047;47.904;8.110;2022-08-06T06:07:13;4.00;;;1.90;;
21771;SDS011;11047;47.904;8.110;2022-08-06T06:09:41;3.75;;;2.03;;
21771;SDS011;11047;47.904;8.110;2022-08-06T06:12:09;6.72;;;2.17;;
21771;SDS011;11047;47.904;8.110;2022-08-06T06:14:37;3.05;;;1.83;;
21771;SDS011;11047;47.904;8.110;2022-08-06T06:17:23;3.42;;;1.98;;
21771;SDS011;11047;47.904;8.110;2022-08-06T06:20:01;4.05;;;2.05;;
21771;SDS011;11047;47.904;8.110;2022-08-06T06:22:37;2.38;;;1.98;;
21771;SDS011;11047;47.904;8.110;2022-08-06T06:25:10;4.00;;;2.10;;
21771;SDS011;11047;47.904;8.110;2022-08-06T06:27:43;4.13;;;2.05;;
21771;SDS011;11047;47.904;8.110;2022-08-06T06:30:16;3.03;;;1.73;;
21771;SDS011;11047;47.904;8.110;2022-08-06T06:32:50;2.17;;;1.58;;
21771;SDS011;11047;47.904;8.110;2022-08-06T06:35:27;3.10;;;1.60;;
21771;SDS011;11047;47.904;8.110;2022-08-06T06:38:02;4.63;;;2.00;;
21771;SDS011;11047;47.904;8.110;2022-08-06T06:40:47;2.33;;;1.90;;
21771;SDS011;11047;47.904;8.110;2022-08-06T06:43:20;5.00;;;1.70;;
21771;SDS011;11047;47.904;8.110;2022-08-06T06:45:55;4.65;;;1.73;;
21771;SDS011;11047;47.904;8.110;2022-08-06T06:48:30;5.07;;;1.70;;
21771;SDS011;11047;47.904;8.110;2022-08-06T06:51:01;6.60;;;1.87;;
21771;SDS011;11047;47.904;8.110;2022-08-06T06:53:30;2.95;;;1.73;;
21771;SDS011;11047;47.904;8.110;2022-08-06T06:56:01;2.97;;;2.00;;
21771;SDS011;11047;47.904;8.110;2022-08-06T06:58:31;6.45;;;2.00;;
21771;SDS011;11047;47.904;8.110;2022-08-06T07:01:03;3.90;;;1.77;;
21771;SDS011;11047;47.904;8.110;2022-08-06T07:03:34;10.05;;;1.70;;
21771;SDS011;11047;47.904;8.110;2022-08-06T07:06:02;3.08;;;2.00;;
21771;SDS011;11047;47.904;8.110;2022-08-06T07:08:33;6.05;;;2.28;;
21771;SDS011;11047;47.904;8.110;2022-08-06T07:11:06;3.97;;;2.03;;
21771;SDS011;11047;47.904;8.110;2022-08-06T07:13:34;2.83;;;1.95;;
21771;SDS011;11047;47.904;8.110;2022-08-06T07:16:03;2.72;;;1.95;;
21771;SDS011;11047;47.904;8.110;2022-08-06T07:18:31;6.32;;;2.03;;
21771;SDS011;11047;47.904;8.110;2022-08-06T07:21:01;4.47;;;2.00;;
21771;SDS011;11047;47.904;8.110;2022-08-06T07:23:29;5.28;;;2.40;;
21771;SDS011;11047;47.904;8.110;2022-08-06T07:25:57;3.72;;;2.08;;
21771;SDS011;11047;47.904;8.110;2022-08-06T07:28:25;3.15;;;2.10;;
21771;SDS011;11047;47.904;8.110;2022-08-06T07:30:53;4.10;;;1.70;;
21771;SDS011;11047;47.904;8.110;2022-08-06T07:33:21;3.42;;;2.10;;
21771;SDS011;11047;47.904;8.110;2022-08-06T07:35:50;3.03;;;1.83;;
21771;SDS011;11047;47.904;8.110;2022-08-06T07:38:19;3.17;;;1.55;;
21771;SDS011;11047;47.904;8.110;2022-08-06T07:40:50;2.83;;;2.30;;
21771;SDS011;11047;47.904;8.110;2022-08-06T07:43:20;5.85;;;2.33;;
21771;SDS011;11047;47.904;8.110;2022-08-06T07:45:49;4.22;;;2.50;;
21771;SDS011;11047;47.904;8.110;2022-08-06T07:48:18;3.70;;;2.50;;
21771;SDS011;11047;47.904;8.110;2022-08-06T07:50:52;3.72;;;2.67;;
21771;SDS011;11047;47.904;8.110;2022-08-06T07:53:21;3.45;;;1.90;;
21771;SDS011;11047;47.904;8.110;2022-08-06T07:55:48;4.72;;;2.58;;
21771;SDS011;11047;47.904;8.110;2022-08-06T07:58:16;4.10;;;2.42;;
21771;SDS011;11047;47.904;8.110;2022-08-06T08:00:44;4.35;;;2.50;;
21771;SDS011;11047;47.904;8.110;2022-08-06T08:03:13;3.85;;;2.40;;
21771;SDS011;11047;47.904;8.110;2022-08-06T08:05:59;3.03;;;2.53;;
21771;SDS011;11047;47.904;8.110;2022-08-06T08:08:47;3.78;;;2.20;;
21771;SDS011;11047;47.904;8.110;2022-08-06T08:11:16;5.43;;;2.42;;
21771;SDS011;11047;47.904;8.110;2022-08-06T08:13:44;4.20;;;2.20;;
21771;SDS011;11047;47.904;8.110;2022-08-06T08:16:12;2.88;;;1.75;;
21771;SDS011;11047;47.904;8.110;2022-08-06T08:18:40;2.90;;;2.15;;
21771;SDS011;11047;47.904;8.110;2022-08-06T08:21:09;2.90;;;1.98;;
21771;SDS011;11047;47.904;8.110;2022-08-06T08:23:38;3.83;;;1.90;;
21771;SDS011;11047;47.904;8.110;2022-08-06T08:26:06;3.88;;;1.85;;
21771;SDS011;11047;47.904;8.110;2022-08-06T08:28:34;3.03;;;1.70;;
21771;SDS011;11047;47.904;8.110;2022-08-06T08:31:01;2.20;;;1.50;;
21771;SDS011;11047;47.904;8.110;2022-08-06T08:33:29;3.08;;;1.65;;
21771;SDS011;11047;47.904;8.110;2022-08-06T08:35:56;5.25;;;1.88;;
21771;SDS011;11047;47.904;8.110;2022-08-06T08:38:24;2.03;;;1.83;;
21771;SDS011;11047;47.904;8.110;2022-08-06T08:40:51;2.83;;;1.65;;
21771;SDS011;11047;47.904;8.110;2022-08-06T08:43:22;5.43;;;1.95;;
21771;SDS011;11047;47.904;8.110;2022-08-06T08:45:51;4.25;;;2.15;;
21771;SDS011;11047;47.904;8.110;2022-08-06T08:48:20;4.32;;;1.85;;
21771;SDS011;11047;47.904;8.110;2022-08-06T08:50:49;3.50;;;2.08;;
21771;SDS011;11047;47.904;8.110;2022-08-06T08:53:20;3.28;;;1.75;;
21771;SDS011;11047;47.904;8.110;2022-08-06T08:55:56;3.08;;;1.90;;
21771;SDS011;11047;47.904;8.110;2022-08-06T08:58:23;2.33;;;1.65;;
21771;SDS011;11047;47.904;8.110;2022-08-06T09:00:51;4.10;;;2.10;;
21771;SDS011;11047;47.904;8.110;2022-08-06T09:03:17;1.75;;;1.65;;
21771;SDS011;11047;47.904;8.110;2022-08-06T09:05:45;2.90;;;1.50;;
21771;SDS011;11047;47.904;8.110;2022-08-06T09:08:12;2.53;;;1.77;;
21771;SDS011;11047;47.904;8.110;2022-08-06T09:10:40;2.10;;;1.77;;
21771;SDS011;11047;47.904;8.110;2022-08-06T09:13:09;3.72;;;1.80;;
21771;SDS011;11047;47.904;8.110;2022-08-06T09:15:36;11.55;;;3.28;;
21771;SDS011;11047;47.904;8.110;2022-08-06T09:18:04;4.38;;;2.17;;
21771;SDS011;11047;47.904;8.110;2022-08-06T09:20:31;4.43;;;1.85;;
21771;SDS011;11047;47.904;8.110;2022-08-06T09:22:59;1.63;;;1.52;;
21771;SDS011;11047;47.904;8.110;2022-08-06T09:25:37;3.00;;;1.67;;
21771;SDS011;11047;47.904;8.110;2022-08-06T09:28:11;6.55;;;1.73;;
21771;SDS011;11047;47.904;8.110;2022-08-06T09:30:56;3.17;;;1.95;;
21771;SDS011;11047;47.904;8.110;2022-08-06T09:33:24;4.50;;;2.00;;
21771;SDS011;11047;47.904;8.110;2022-08-06T09:35:56;2.55;;;2.10;;
21771;SDS011;11047;47.904;8.110;2022-08-06T09:38:24;3.05;;;1.73;;
21771;SDS011;11047;47.904;8.110;2022-08-06T09:41:03;12.15;;;2.17;;
21771;SDS011;11047;47.904;8.110;2022-08-06T09:43:33;2.67;;;1.70;;
21771;SDS011;11047;47.904;8.110;2022-08-06T09:46:00;3.95;;;1.90;;
21771;SDS011;11047;47.904;8.110;2022-08-06T09:48:27;2.97;;;1.80;;
21771;SDS011;11047;47.904;8.110;2022-08-06T09:50:54;2.83;;;1.63;;
21771;SDS011;11047;47.904;8.110;2022-08-06T09:53:21;3.38;;;2.20;;
21771;SDS011;11047;47.904;8.110;2022-08-06T09:55:48;3.22;;;2.40;;
21771;SDS011;11047;47.904;8.110;2022-08-06T09:58:25;3.63;;;1.88;;
21771;SDS011;11047;47.904;8.110;2022-08-06T10:00:54;2.83;;;1.80;;
21771;SDS011;11047;47.904;8.110;2022-08-06T10:03:21;3.78;;;1.90;;
21771;SDS011;11047;47.904;8.110;2022-08-06T10:06:02;3.47;;;2.05;;
21771;SDS011;11047;47.904;8.110;2022-08-06T10:08:30;3.45;;;2.15;;
21771;SDS011;11047;47.904;8.110;2022-08-06T10:10:57;3.03;;;2.00;;
21771;SDS011;11047;47.904;8.110;2022-08-06T10:13:28;3.83;;;2.13;;
21771;SDS011;11047;47.904;8.110;2022-08-06T10:15:57;3.10;;;2.10;;
21771;SDS011;11047;47.904;8.110;2022-08-06T10:18:37;3.63;;;2.20;;
21771;SDS011;11047;47.904;8.110;2022-08-06T10:21:06;4.00;;;1.80;;
21771;SDS011;11047;47.904;8.110;2022-08-06T10:23:34;3.42;;;2.28;;
21771;SDS011;11047;47.904;8.110;2022-08-06T10:26:04;2.53;;;1.88;;
21771;SDS011;11047;47.904;8.110;2022-08-06T10:28:32;3.45;;;1.73;;
21771;SDS011;11047;47.904;8.110;2022-08-06T10:31:04;3.40;;;2.45;;
21771;SDS011;11047;47.904;8.110;2022-08-06T10:33:40;2.95;;;2.03;;
21771;SDS011;11047;47.904;8.110;2022-08-06T10:36:11;2.20;;;2.00;;
21771;SDS011;11047;47.904;8.110;2022-08-06T10:38:40;4.25;;;2.00;;
21771;SDS011;11047;47.904;8.110;2022-08-06T10:41:11;2.20;;;1.90;;
21771;SDS011;11047;47.904;8.110;2022-08-06T10:43:40;3.35;;;2.00;;
21771;SDS011;11047;47.904;8.110;2022-08-06T10:46:09;7.80;;;1.90;;
21771;SDS011;11047;47.904;8.110;2022-08-06T10:48:41;3.27;;;2.23;;
21771;SDS011;11047;47.904;8.110;2022-08-06T10:51:10;37.05;;;3.25;;
21771;SDS011;11047;47.904;8.110;2022-08-06T10:53:39;3.20;;;2.08;;
21771;SDS011;11047;47.904;8.110;2022-08-06T10:56:07;4.35;;;1.85;;
21771;SDS011;11047;47.904;8.110;2022-08-06T10:58:37;4.47;;;2.00;;
21771;SDS011;11047;47.904;8.110;2022-08-06T11:01:05;3.40;;;2.00;;
21771;SDS011;11047;47.904;8.110;2022-08-06T11:03:40;4.07;;;2.08;;
21771;SDS011;11047;47.904;8.110;2022-08-06T11:06:24;3.85;;;2.20;;
21771;SDS011;11047;47.904;8.110;2022-08-06T11:09:11;3.63;;;2.10;;
21771;SDS011;11047;47.904;8.110;2022-08-06T11:11:54;5.75;;;2.28;;
21771;SDS011;11047;47.904;8.110;2022-08-06T11:14:29;2.83;;;2.30;;
21771;SDS011;11047;47.904;8.110;2022-08-06T11:16:59;4.63;;;2.55;;
21771;SDS011;11047;47.904;8.110;2022-08-06T11:19:37;3.20;;;2.55;;
21771;SDS011;11047;47.904;8.110;2022-08-06T11:22:06;6.25;;;2.08;;
21771;SDS011;11047;47.904;8.110;2022-08-06T11:24:33;5.97;;;2.10;;
21771;SDS011;11047;47.904;8.110;2022-08-06T11:30:16;2.33;;;2.10;;
21771;SDS011;11047;47.904;8.110;2022-08-06T11:32:44;2.45;;;1.88;;
21771;SDS011;11047;47.904;8.110;2022-08-06T11:38:09;2.45;;;1.98;;
21771;SDS011;11047;47.904;8.110;2022-08-06T11:40:52;4.63;;;1.80;;
21771;SDS011;11047;47.904;8.110;2022-08-06T11:46:19;3.80;;;1.83;;
21771;SDS011;11047;47.904;8.110;2022-08-06T11:51:41;3.28;;;2.10;;
21771;SDS011;11047;47.904;8.110;2022-08-06T11:54:10;3.97;;;2.50;;
21771;SDS011;11047;47.904;8.110;2022-08-06T11:59:46;2.30;;;2.10;;
21771;SDS011;11047;47.904;8.110;2022-08-06T12:02:46;3.22;;;2.30;;
21771;SDS011;11047;47.904;8.110;2022-08-06T12:05:39;2.50;;;2.05;;
21771;SDS011;11047;47.904;8.110;2022-08-06T12:08:17;2.53;;;2.03;;
21771;SDS011;11047;47.904;8.110;2022-08-06T12:13:50;5.25;;;2.30;;
21771;SDS011;11047;47.904;8.110;2022-08-06T12:16:28;3.35;;;2.33;;
21771;SDS011;11047;47.904;8.110;2022-08-06T12:18:56;2.53;;;2.10;;
21771;SDS011;11047;47.904;8.110;2022-08-06T12:21:23;5.55;;;2.10;;
21771;SDS011;11047;47.904;8.110;2022-08-06T12:23:52;3.97;;;1.85;;
21771;SDS011;11047;47.904;8.110;2022-08-06T12:26:20;6.78;;;2.28;;
21771;SDS011;11047;47.904;8.110;2022-08-06T12:28:47;2.70;;;1.90;;
21771;SDS011;11047;47.904;8.110;2022-08-06T12:31:27;4.45;;;2.10;;
21771;SDS011;11047;47.904;8.110;2022-08-06T12:33:55;5.82;;;2.20;;
21771;SDS011;11047;47.904;8.110;2022-08-06T12:36:25;6.53;;;2.10;;
21771;SDS011;11047;47.904;8.110;2022-08-06T12:38:56;3.88;;;2.17;;
21771;SDS011;11047;47.904;8.110;2022-08-06T12:41:31;3.67;;;1.95;;
21771;SDS011;11047;47.904;8.110;2022-08-06T12:44:04;4.88;;;1.95;;
21771;SDS011;11047;47.904;8.110;2022-08-06T12:46:31;4.22;;;1.92;;
21771;SDS011;11047;47.904;8.110;2022-08-06T12:48:58;2.05;;;1.88;;
21771;SDS011;11047;47.904;8.110;2022-08-06T12:51:26;2.58;;;1.95;;
21771;SDS011;11047;47.904;8.110;2022-08-06T12:53:54;2.45;;;2.05;;
21771;SDS011;11047;47.904;8.110;2022-08-06T12:56:24;5.15;;;1.77;;
21771;SDS011;11047;47.904;8.110;2022-08-06T12:58:52;2.10;;;1.95;;
21771;SDS011;11047;47.904;8.110;2022-08-06T13:01:21;2.55;;;1.95;;
21771;SDS011;11047;47.904;8.110;2022-08-06T13:03:51;3.25;;;1.95;;
21771;SDS011;11047;47.904;8.110;2022-08-06T13:06:25;3.42;;;1.67;;
21771;SDS011;11047;47.904;8.110;2022-08-06T13:08:54;5.93;;;2.17;;
21771;SDS011;11047;47.904;8.110;2022-08-06T13:11:29;3.75;;;2.00;;
21771;SDS011;11047;47.904;8.110;2022-08-06T13:13:57;2.33;;;1.92;;
21771;SDS011;11047;47.904;8.110;2022-08-06T13:16:36;2.20;;;2.00;;
21771;SDS011;11047;47.904;8.110;2022-08-06T13:19:04;3.50;;;2.15;;
21771;SDS011;11047;47.904;8.110;2022-08-06T13:21:33;3.72;;;2.00;;
21771;SDS011;11047;47.904;8.110;2022-08-06T13:24:01;3.50;;;2.00;;
21771;SDS011;11047;47.904;8.110;2022-08-06T13:26:31;5.47;;;2.63;;
21771;SDS011;11047;47.904;8.110;2022-08-06T13:29:02;3.65;;;2.10;;
21771;SDS011;11047;47.904;8.110;2022-08-06T13:31:33;3.28;;;2.20;;
21771;SDS011;11047;47.904;8.110;2022-08-06T13:34:02;4.22;;;2.10;;
21771;SDS011;11047;47.904;8.110;2022-08-06T13:36:30;2.55;;;2.35;;
21771;SDS011;11047;47.904;8.110;2022-08-06T13:38:58;3.30;;;2.10;;
21771;SDS011;11047;47.904;8.110;2022-08-06T13:41:29;2.92;;;2.13;;
21771;SDS011;11047;47.904;8.110;2022-08-06T13:43:58;3.45;;;2.22;;
21771;SDS011;11047;47.904;8.110;2022-08-06T13:46:25;4.95;;;2.60;;
21771;SDS011;11047;47.904;8.110;2022-08-06T13:48:54;3.25;;;2.30;;
21771;SDS011;11047;47.904;8.110;2022-08-06T13:51:24;6.55;;;2.10;;
21771;SDS011;11047;47.904;8.110;2022-08-06T13:53:51;2.53;;;2.22;;
21771;SDS011;11047;47.904;8.110;2022-08-06T13:56:18;5.70;;;2.10;;
21771;SDS011;11047;47.904;8.110;2022-08-06T13:58:46;4.38;;;2.20;;
21771;SDS011;11047;47.904;8.110;2022-08-06T14:01:13;5.15;;;1.80;;
21771;SDS011;11047;47.904;8.110;2022-08-06T14:03:41;3.47;;;2.42;;
21771;SDS011;11047;47.904;8.110;2022-08-06T14:06:08;4.82;;;2.00;;
21771;SDS011;11047;47.904;8.110;2022-08-06T14:08:34;2.80;;;2.13;;
21771;SDS011;11047;47.904;8.110;2022-08-06T14:11:02;1.88;;;1.70;;
21771;SDS011;11047;47.904;8.110;2022-08-06T14:13:29;2.53;;;1.98;;
21771;SDS011;11047;47.904;8.110;2022-08-06T14:15:58;4.05;;;2.33;;
21771;SDS011;11047;47.904;8.110;2022-08-06T14:18:26;3.85;;;2.20;;
21771;SDS011;11047;47.904;8.110;2022-08-06T14:20:54;4.20;;;2.20;;
21771;SDS011;11047;47.904;8.110;2022-08-06T14:23:21;2.40;;;1.95;;
21771;SDS011;11047;47.904;8.110;2022-08-06T14:25:48;3.58;;;2.30;;
21771;SDS011;11047;47.904;8.110;2022-08-06T14:28:15;3.13;;;2.22;;
21771;SDS011;11047;47.904;8.110;2022-08-06T14:30:43;8.02;;;2.70;;
21771;SDS011;11047;47.904;8.110;2022-08-06T14:33:11;2.50;;;2.30;;
21771;SDS011;11047;47.904;8.110;2022-08-06T14:35:38;3.20;;;2.35;;
21771;SDS011;11047;47.904;8.110;2022-08-06T14:38:05;4.25;;;2.42;;
21771;SDS011;11047;47.904;8.110;2022-08-06T14:40:32;2.88;;;2.38;;
21771;SDS011;11047;47.904;8.110;2022-08-06T14:43:17;3.40;;;2.33;;
21771;SDS011;11047;47.904;8.110;2022-08-06T14:46:01;2.92;;;2.42;;
21771;SDS011;11047;47.904;8.110;2022-08-06T14:48:30;3.97;;;2.35;;
21771;SDS011;11047;47.904;8.110;2022-08-06T14:50:57;3.83;;;2.60;;
21771;SDS011;11047;47.904;8.110;2022-08-06T14:53:24;4.32;;;2.40;;
21771;SDS011;11047;47.904;8.110;2022-08-06T14:55:51;3.45;;;2.40;;
21771;SDS011;11047;47.904;8.110;2022-08-06T14:58:18;4.90;;;2.13;;
21771;SDS011;11047;47.904;8.110;2022-08-06T15:00:45;3.17;;;2.15;;
21771;SDS011;11047;47.904;8.110;2022-08-06T15:03:13;3.78;;;2.65;;
21771;SDS011;11047;47.904;8.110;2022-08-06T15:05:42;5.70;;;2.63;;
21771;SDS011;11047;47.904;8.110;2022-08-06T15:08:10;3.47;;;2.53;;
21771;SDS011;11047;47.904;8.110;2022-08-06T15:10:37;4.85;;;2.63;;
21771;SDS011;11047;47.904;8.110;2022-08-06T15:13:04;4.90;;;3.00;;
21771;SDS011;11047;47.904;8.110;2022-08-06T15:15:32;3.38;;;2.33;;
21771;SDS011;11047;47.904;8.110;2022-08-06T15:17:58;3.70;;;2.67;;
21771;SDS011;11047;47.904;8.110;2022-08-06T15:20:25;5.10;;;3.42;;
21771;SDS011;11047;47.904;8.110;2022-08-06T15:22:54;8.15;;;3.35;;
21771;SDS011;11047;47.904;8.110;2022-08-06T15:25:21;5.70;;;2.95;;
21771;SDS011;11047;47.904;8.110;2022-08-06T15:27:48;3.85;;;2.55;;